createdAt,value
2023-05-09T00:01:45.479Z,101205.47
2023-05-09T00:04:50.342Z,101202.84
2023-05-09T00:07:52.445Z,101208.97
2023-05-09T00:10:54.279Z,101213.34
2023-05-09T00:13:55.993Z,101212.44
2023-05-09T00:17:00.219Z,101210.72
2023-05-09T00:20:05.290Z,101194.97
2023-05-09T00:23:07.691Z,101182.72
2023-05-09T00:26:10.579Z,101201.94
2023-05-09T00:29:13.946Z,101181.81
2023-05-09T00:32:15.875Z,101201.91
2023-05-09T00:35:17.847Z,101175.69
2023-05-09T00:38:19.678Z,101162.56
2023-05-09T00:41:21.783Z,101194.88
2023-05-09T00:44:23.613Z,101201.88
2023-05-09T00:47:27.448Z,101191.38
2023-05-09T00:50:29.259Z,101187.00
2023-05-09T00:53:31.338Z,101200.16
2023-05-09T00:56:33.407Z,101161.69
2023-05-09T00:59:36.052Z,101188.78
2023-05-09T01:02:38.020Z,101192.28
2023-05-09T01:06:07.025Z,101199.28
2023-05-09T01:09:30.349Z,101047.28
2023-05-09T01:12:49.807Z,101200.16
2023-05-09T01:16:01.477Z,101198.44
2023-05-09T01:19:36.731Z,101208.00
2023-05-09T01:22:46.142Z,101200.16
2023-05-09T01:25:47.858Z,101208.00
2023-05-09T01:29:09.997Z,101179.13
2023-05-09T01:32:21.156Z,101182.59
2023-05-09T01:35:26.505Z,101180.84
2023-05-09T01:38:32.240Z,101191.34
2023-05-09T01:41:37.697Z,101195.72
2023-05-09T01:44:43.749Z,101186.94
2023-05-09T01:47:48.088Z,101197.38
2023-05-09T01:50:50.104Z,101189.50
2023-05-09T01:53:55.324Z,101212.22
2023-05-09T01:56:59.238Z,101190.44
2023-05-09T02:00:03.869Z,101186.09
2023-05-09T02:03:15.206Z,101154.66
2023-05-09T02:06:21.140Z,101193.16
2023-05-09T02:09:23.107Z,101181.78
2023-05-09T02:12:25.171Z,101203.63
2023-05-09T02:15:29.299Z,101196.66
2023-05-09T02:18:32.777Z,101177.47
2023-05-09T02:21:35.884Z,101177.47
2023-05-09T02:24:38.006Z,101168.72
2023-05-09T02:27:40.681Z,101125.03
2023-05-09T02:30:45.844Z,101162.59
2023-05-09T02:33:48.023Z,101166.06
2023-05-09T02:50:33.980Z,101167.84
2023-05-09T02:53:35.972Z,101168.72
2023-05-09T02:56:38.160Z,101191.44
2023-05-09T02:59:39.899Z,101180.97
2023-05-09T03:02:41.686Z,101180.97
2023-05-09T03:05:50.068Z,101181.84
2023-05-09T03:08:51.840Z,101179.19
2023-05-09T03:11:56.034Z,101202.81
2023-05-09T03:14:57.836Z,101189.69
2023-05-09T03:17:59.944Z,101182.69
2023-05-09T03:21:01.802Z,101173.94
2023-05-09T03:24:07.691Z,101201.03
2023-05-09T03:27:11.644Z,101202.78
2023-05-09T03:30:13.975Z,101200.16
2023-05-09T03:33:17.276Z,101199.31
2023-05-09T03:36:19.384Z,101195.81
2023-05-09T03:39:21.234Z,101215.91
2023-05-09T03:42:29.117Z,101208.91
2023-05-09T03:45:36.180Z,101204.56
2023-05-09T03:48:39.580Z,101216.81
2023-05-09T03:51:42.288Z,101208.94
2023-05-09T03:54:51.370Z,101215.94
2023-05-09T03:57:53.925Z,101226.44
2023-05-09T04:00:56.541Z,101216.81
2023-05-09T04:04:00.603Z,101225.56
2023-05-09T04:07:04.512Z,101200.22
2023-05-09T04:10:07.641Z,101125.06
2023-05-09T04:13:10.051Z,101227.31
2023-05-09T04:16:12.488Z,101237.78
2023-05-09T04:19:14.880Z,101221.19
2023-05-09T04:22:16.771Z,101224.69
2023-05-09T04:25:20.595Z,101233.47
2023-05-09T04:28:23.326Z,101209.84
2023-05-09T04:31:27.185Z,101234.28
2023-05-09T04:34:29.742Z,101233.44
2023-05-09T04:37:35.806Z,101225.50
2023-05-09T04:40:38.083Z,101225.50
2023-05-09T04:43:39.923Z,101220.28
2023-05-09T04:46:42.396Z,101221.97
2023-05-09T04:49:44.245Z,101209.75
2023-05-09T04:52:46.130Z,101233.28
2023-05-09T04:55:48.033Z,101211.44
2023-05-09T04:58:50.469Z,101233.28
2023-05-09T05:01:52.308Z,101231.50
2023-05-09T05:05:06.174Z,101229.66
2023-05-09T05:08:14.153Z,101243.63
2023-05-09T05:11:20.667Z,101232.22
2023-05-09T05:14:22.752Z,101234.78
2023-05-09T05:17:24.902Z,101240.91
2023-05-09T05:20:27.434Z,101246.09
2023-05-09T05:23:29.259Z,101230.31
2023-05-09T05:26:34.252Z,101240.75
2023-05-09T05:29:36.713Z,101233.72
2023-05-09T05:32:38.907Z,101251.97
2023-05-09T05:35:41.074Z,101194.31
2023-05-09T05:38:42.789Z,101232.66
2023-05-09T05:41:44.675Z,101233.44
2023-05-09T05:44:46.826Z,101233.31
2023-05-09T05:47:48.862Z,101225.41
2023-05-09T05:50:51.441Z,101226.22
2023-05-09T05:53:57.151Z,101177.19
2023-05-09T05:57:00.234Z,101221.47
2023-05-09T06:00:02.808Z,101232.72
2023-05-09T06:03:16.096Z,101230.59
2023-05-09T06:06:32.362Z,101222.34
2023-05-09T06:09:34.134Z,101227.22
2023-05-09T06:12:36.100Z,101230.75
2023-05-09T06:15:37.857Z,101219.53
2023-05-09T06:18:40.288Z,101211.94
2023-05-09T06:21:42.057Z,101208.69
2023-05-09T06:24:43.807Z,101194.81
2023-05-09T06:27:45.618Z,101222.50
2023-05-09T06:30:47.316Z,101208.31
2023-05-09T06:33:49.065Z,101207.59
2023-05-09T06:36:50.931Z,101225.53
2023-05-09T06:39:54.645Z,101216.09
2023-05-09T06:42:56.499Z,101210.22
2023-05-09T06:45:58.296Z,101202.91
2023-05-09T06:49:02.034Z,101198.53
2023-05-09T06:52:03.888Z,101209.13
2023-05-09T06:55:06.229Z,101199.66
2023-05-09T06:58:08.158Z,101196.75
2023-05-09T07:01:09.985Z,101197.06
2023-05-09T07:04:11.749Z,101179.94
2023-05-09T07:07:13.454Z,101195.91
2023-05-09T07:10:15.133Z,101176.34
2023-05-09T07:13:16.932Z,101182.63
2023-05-09T07:16:18.764Z,101181.06
2023-05-09T07:19:20.714Z,101194.75
2023-05-09T07:22:22.489Z,101172.41
2023-05-09T07:25:24.386Z,101176.09
2023-05-09T07:28:26.332Z,101186.84
2023-05-09T07:31:28.296Z,101170.44
2023-05-09T07:34:29.981Z,101186.41
2023-05-09T07:37:31.937Z,101188.28
2023-05-09T07:40:36.439Z,101186.66
2023-05-09T07:43:38.334Z,101179.56
2023-05-09T07:46:42.054Z,101170.28
2023-05-09T07:49:46.445Z,101172.00
2023-05-09T07:52:49.715Z,101154.31
2023-05-09T07:55:51.518Z,101166.34
2023-05-09T07:58:55.068Z,101168.69
2023-05-09T08:01:57.686Z,101164.59
2023-05-09T08:04:59.508Z,101169.50
2023-05-09T08:08:01.206Z,101145.66
2023-05-09T08:11:02.860Z,101147.31
2023-05-09T08:14:04.700Z,101145.91
2023-05-09T08:17:06.533Z,101132.09
2023-05-09T08:20:12.222Z,101132.59
2023-05-09T08:23:14.229Z,101140.88
2023-05-09T08:26:16.211Z,101140.28
2023-05-09T08:29:18.163Z,101133.69
2023-05-09T08:32:20.204Z,101136.31
2023-05-09T08:35:22.169Z,101137.25
2023-05-09T08:38:24.856Z,101134.81
2023-05-09T08:41:30.158Z,101151.09
2023-05-09T08:44:32.362Z,101103.19
2023-05-09T08:47:44.643Z,101143.09
2023-05-09T08:50:47.237Z,101136.91
2023-05-09T08:53:49.101Z,101131.47
2023-05-09T08:56:51.635Z,101137.91
2023-05-09T08:59:55.088Z,101136.03
2023-05-09T09:03:00.881Z,101138.75
2023-05-09T09:06:03.238Z,101125.28
2023-05-09T09:09:08.767Z,101123.00
2023-05-09T09:12:11.678Z,101118.34
2023-05-09T09:15:17.956Z,101112.91
2023-05-09T09:18:23.906Z,101126.84
2023-05-09T09:21:26.308Z,101124.84
2023-05-09T09:24:28.244Z,101111.41
2023-05-09T09:27:30.022Z,101125.00
2023-05-09T09:30:32.643Z,101099.03
2023-05-09T09:33:35.813Z,101115.75
2023-05-09T09:36:37.542Z,101100.38
2023-05-09T09:39:54.200Z,101115.69
2023-05-09T09:42:56.017Z,101116.03
2023-05-09T09:46:01.493Z,101108.28
2023-05-09T09:49:03.298Z,101118.56
2023-05-09T09:52:05.046Z,101106.06
2023-05-09T09:55:07.363Z,101104.31
2023-05-09T09:58:21.940Z,101094.75
2023-05-09T10:01:24.721Z,101101.72
2023-05-09T10:04:30.082Z,101104.44
2023-05-09T10:07:34.405Z,101081.47
2023-05-09T10:10:37.768Z,101095.50
2023-05-09T10:13:39.592Z,101078.66
2023-05-09T10:16:44.232Z,101083.69
2023-05-09T10:19:49.341Z,101084.00
2023-05-09T10:22:55.948Z,101083.53
2023-05-09T10:26:29.035Z,101092.19
2023-05-09T10:29:35.362Z,101079.03
2023-05-09T10:33:03.300Z,101087.88
2023-05-09T10:36:06.549Z,101088.44
2023-05-09T10:39:08.400Z,101076.13
2023-05-09T10:42:10.839Z,101060.63
2023-05-09T10:45:13.507Z,101070.81
2023-05-09T10:48:16.293Z,101052.97
2023-05-09T10:51:18.428Z,101050.47
2023-05-09T10:54:30.870Z,101068.69
2023-05-09T10:57:33.019Z,101047.25
2023-05-09T11:00:41.598Z,101052.50
2023-05-09T11:03:57.091Z,101061.56
2023-05-09T11:07:00.546Z,101065.63
2023-05-09T11:10:10.349Z,101056.25
2023-05-09T11:13:12.219Z,101057.25
2023-05-09T11:16:14.099Z,101046.66
2023-05-09T11:19:34.192Z,101053.03
2023-05-09T11:22:44.106Z,101051.00
2023-05-09T11:25:47.992Z,101040.97
2023-05-09T11:28:54.201Z,101038.13
2023-05-09T11:32:06.465Z,101046.09
2023-05-09T11:35:15.800Z,101046.22
2023-05-09T11:38:21.493Z,101038.78
2023-05-09T11:41:24.164Z,101033.19
2023-05-09T11:44:27.946Z,101014.81
2023-05-09T11:47:30.957Z,101017.91
2023-05-09T11:50:33.113Z,101023.81
2023-05-09T11:53:36.279Z,101023.56
2023-05-09T11:56:40.388Z,101014.69
2023-05-09T11:59:42.168Z,101013.81
2023-05-09T12:02:45.886Z,101003.78
2023-05-09T12:05:48.610Z,101009.94
2023-05-09T12:08:50.647Z,101003.56
2023-05-09T12:11:52.627Z,101016.38
2023-05-09T12:14:54.794Z,100997.44
2023-05-09T12:18:06.912Z,100998.88
2023-05-09T12:21:08.755Z,101001.97
2023-05-09T12:24:10.535Z,100991.72
2023-05-09T12:27:12.764Z,101006.22
2023-05-09T12:30:16.229Z,100976.16
2023-05-09T12:33:18.919Z,100980.41
2023-05-09T12:36:21.377Z,100974.69
2023-05-09T12:39:23.262Z,100982.34
2023-05-09T12:42:28.605Z,100973.25
2023-05-09T12:45:33.699Z,100967.47
2023-05-09T12:48:38.048Z,100981.81
2023-05-09T12:51:48.438Z,100971.50
2023-05-09T12:54:52.866Z,100966.31
2023-05-09T12:58:02.567Z,100958.13
2023-05-09T13:01:05.734Z,100975.09
2023-05-09T13:04:07.763Z,100950.47
2023-05-09T13:07:12.679Z,100953.06
2023-05-09T13:10:21.556Z,100944.50
2023-05-09T13:13:26.716Z,100938.63
2023-05-09T13:16:29.025Z,100946.88
2023-05-09T13:19:30.755Z,100945.75
2023-05-09T13:22:32.975Z,100941.59
2023-05-09T13:25:34.789Z,100945.28
2023-05-09T13:28:36.605Z,100940.69
2023-05-09T13:31:38.392Z,100923.13
2023-05-09T13:34:41.490Z,100926.81
2023-05-09T13:37:43.815Z,100940.50
2023-05-09T13:40:45.844Z,100934.47
2023-05-09T13:43:48.177Z,100917.06
2023-05-09T13:46:50.624Z,100924.59
2023-05-09T13:49:52.831Z,100912.84
2023-05-09T13:52:54.564Z,100904.84
2023-05-09T13:55:56.304Z,100898.16
2023-05-09T13:58:58.188Z,100910.41
2023-05-09T14:02:01.225Z,100898.00
2023-05-09T14:05:04.358Z,100904.34
2023-05-09T14:08:07.958Z,100888.19
2023-05-09T14:11:09.661Z,100902.44
2023-05-09T14:14:11.644Z,100903.41
2023-05-09T14:17:13.466Z,100888.72
2023-05-09T14:20:18.286Z,100893.59
2023-05-09T14:23:20.362Z,100891.53
2023-05-09T14:26:22.275Z,100879.56
2023-05-09T14:29:23.962Z,100889.63
2023-05-09T14:32:25.686Z,100856.63
2023-05-09T14:35:27.743Z,100886.34
2023-05-09T14:38:29.825Z,100879.03
2023-05-09T14:41:31.886Z,100873.25
2023-05-09T14:44:33.610Z,100857.91
2023-05-09T14:47:35.422Z,100857.91
2023-05-09T14:50:37.321Z,100855.31
2023-05-09T14:53:42.146Z,100853.34
2023-05-09T14:56:44.312Z,100860.63
2023-05-09T14:59:46.155Z,100851.63
2023-05-09T15:02:47.951Z,100851.72
2023-05-09T15:05:50.784Z,100834.16
2023-05-09T15:08:52.652Z,100850.59
2023-05-09T15:11:55.114Z,100840.50
2023-05-09T15:15:11.650Z,100852.41
2023-05-09T15:18:15.942Z,100843.97
2023-05-09T15:21:17.796Z,100836.34
2023-05-09T15:24:19.524Z,100841.22
2023-05-09T15:27:21.531Z,100835.44
2023-05-09T15:30:23.455Z,100843.19
2023-05-09T15:33:25.571Z,100840.25
2023-05-09T15:36:30.130Z,100837.34
2023-05-09T15:39:34.793Z,100839.28
2023-05-09T15:42:37.679Z,100836.38
2023-05-09T15:45:45.267Z,100780.75
2023-05-09T15:48:47.303Z,100846.25
2023-05-09T15:51:49.093Z,100829.72
2023-05-09T15:54:50.958Z,100828.72
2023-05-09T15:57:52.783Z,100836.06
2023-05-09T16:00:54.534Z,100816.19
2023-05-09T16:03:56.573Z,100820.91
2023-05-09T16:06:58.725Z,100828.22
2023-05-09T16:10:00.661Z,100818.22
2023-05-09T16:13:02.423Z,100821.31
2023-05-09T16:16:04.572Z,100801.19
2023-05-09T16:19:07.206Z,100817.91
2023-05-09T16:22:09.070Z,100812.72
2023-05-09T16:25:11.433Z,100809.81
2023-05-09T16:28:13.333Z,100799.63
2023-05-09T16:31:14.980Z,100793.31
2023-05-09T16:34:16.866Z,100777.44
2023-05-09T16:37:19.105Z,100791.69
2023-05-09T16:40:21.338Z,100683.16
2023-05-09T16:43:23.016Z,100793.97
2023-05-09T16:46:24.882Z,100796.16
2023-05-09T16:49:26.828Z,100789.44
2023-05-09T16:52:29.579Z,100789.69
2023-05-09T16:55:31.436Z,100784.63
2023-05-09T16:58:34.429Z,100789.31
2023-05-09T17:01:37.857Z,100785.25
2023-05-09T17:04:39.618Z,100791.59
2023-05-09T17:07:41.547Z,100789.94
2023-05-09T17:10:43.239Z,100797.84
2023-05-09T17:13:45.117Z,100800.34
2023-05-09T17:16:46.888Z,100796.22
2023-05-09T17:19:49.011Z,100796.22
2023-05-09T17:22:50.696Z,100779.31
2023-05-09T17:25:52.519Z,100806.91
2023-05-09T17:28:54.266Z,100782.38
2023-05-09T17:32:02.293Z,100804.84
2023-05-09T17:35:05.013Z,100793.88
2023-05-09T17:38:06.835Z,100770.69
2023-05-09T17:41:08.588Z,100797.72
2023-05-09T17:44:11.308Z,100801.91
2023-05-09T17:47:14.277Z,100804.81
2023-05-09T17:50:17.315Z,100798.97
2023-05-09T17:53:19.459Z,100806.59
2023-05-09T17:56:22.482Z,100789.31
2023-05-09T17:59:24.320Z,100802.78
2023-05-09T18:02:27.391Z,100809.31
2023-05-09T18:05:29.319Z,100805.59
2023-05-09T18:08:31.160Z,100816.31
2023-05-09T18:11:33.396Z,100813.38
2023-05-09T18:14:35.847Z,100803.97
2023-05-09T18:17:37.981Z,100811.69
2023-05-09T18:20:39.850Z,100809.91
2023-05-09T18:23:41.685Z,100809.97
2023-05-09T18:26:43.557Z,100774.44
2023-05-09T18:29:47.487Z,100823.28
2023-05-09T18:32:49.379Z,100824.97
2023-05-09T18:35:52.298Z,100835.63
2023-05-09T18:38:54.231Z,100819.81
2023-05-09T18:41:55.975Z,100823.38
2023-05-09T18:45:00.628Z,100821.72
2023-05-09T18:48:03.054Z,100698.13
2023-05-09T18:51:05.056Z,100823.59
2023-05-09T18:54:07.975Z,100814.28
2023-05-09T18:57:09.971Z,100808.56
2023-05-09T19:00:12.680Z,100831.88
2023-05-09T19:03:14.439Z,100819.00
2023-05-09T19:06:16.578Z,100832.34
2023-05-09T19:09:18.525Z,100823.75
2023-05-09T19:12:20.427Z,100842.25
2023-05-09T19:15:23.327Z,100838.06
2023-05-09T19:18:25.169Z,100840.06
2023-05-09T19:21:28.365Z,100828.81
2023-05-09T19:24:32.135Z,100833.94
2023-05-09T19:27:33.937Z,100802.03
2023-05-09T19:30:36.118Z,100825.63
2023-05-09T19:33:38.264Z,100829.19
2023-05-09T19:36:40.173Z,100837.19
2023-05-09T19:39:41.932Z,100836.47
2023-05-09T19:42:43.637Z,100846.97
2023-05-09T19:45:45.571Z,100842.56
2023-05-09T19:48:47.392Z,100842.78
2023-05-09T19:51:49.314Z,100840.38
2023-05-09T19:54:51.181Z,100832.63
2023-05-09T19:57:53.083Z,100839.75
2023-05-09T20:00:54.887Z,100828.38
2023-05-09T20:03:57.005Z,100827.75
2023-05-09T20:06:58.921Z,100809.06
2023-05-09T20:10:00.678Z,100829.00
2023-05-09T20:13:04.410Z,100824.03
2023-05-09T20:16:06.541Z,100830.31
2023-05-09T20:19:09.055Z,100846.22
2023-05-09T20:22:11.598Z,100840.16
2023-05-09T20:25:13.976Z,100835.03
2023-05-09T20:28:20.149Z,100837.81
2023-05-09T20:31:21.950Z,100837.13
2023-05-09T20:34:24.862Z,100834.47
2023-05-09T20:37:26.635Z,100830.50
2023-05-09T20:40:28.705Z,100842.44
2023-05-09T20:43:30.674Z,100841.69
2023-05-09T20:46:32.597Z,100833.00
2023-05-09T20:49:34.394Z,100813.84
2023-05-09T20:52:36.262Z,100797.56
2023-05-09T20:55:38.006Z,100827.03
2023-05-09T20:58:39.776Z,100822.81
2023-05-09T21:01:42.010Z,100832.50
2023-05-09T21:04:44.491Z,100830.13
2023-05-09T21:07:46.363Z,100839.03
2023-05-09T21:10:51.506Z,100832.91
2023-05-09T21:13:53.279Z,100844.34
2023-05-09T21:16:58.107Z,100834.03
2023-05-09T21:19:59.910Z,100821.00
2023-05-09T21:23:01.677Z,100829.31
2023-05-09T21:26:03.503Z,100827.16
2023-05-09T21:29:05.416Z,100815.25
2023-05-09T21:32:07.203Z,100799.72
2023-05-09T21:35:12.715Z,100834.72
2023-05-09T21:38:14.582Z,100818.31
2023-05-09T21:41:16.397Z,100830.69
2023-05-09T21:44:18.128Z,100829.16
2023-05-09T21:47:19.935Z,100839.00
2023-05-09T21:50:21.942Z,100793.09
2023-05-09T21:53:23.785Z,100821.88
2023-05-09T21:56:25.488Z,100833.44
2023-05-09T21:59:27.286Z,100845.63
2023-05-09T22:02:29.239Z,100820.66
2023-05-09T22:05:31.423Z,100828.66
2023-05-09T22:08:33.316Z,100836.63
2023-05-09T22:11:35.397Z,100836.75
2023-05-09T22:14:45.177Z,100837.72
2023-05-09T22:17:54.657Z,100836.97
2023-05-09T22:20:56.487Z,100833.78
2023-05-09T22:23:58.274Z,100819.91
2023-05-09T22:27:00.036Z,100799.19
2023-05-09T22:30:02.832Z,100827.19
2023-05-09T22:33:04.774Z,100819.47
2023-05-09T22:36:07.225Z,100837.00
2023-05-09T22:39:12.019Z,100828.28
2023-05-09T22:42:13.754Z,100822.34
2023-05-09T22:45:15.628Z,100831.13
2023-05-09T22:48:17.484Z,100813.16
2023-05-09T22:51:19.180Z,100815.81
2023-05-09T22:54:22.299Z,100810.63
2023-05-09T22:57:24.120Z,100818.66
2023-05-09T23:00:25.874Z,100822.19
2023-05-09T23:03:27.739Z,100835.31
2023-05-09T23:06:29.673Z,100828.41
2023-05-09T23:09:31.537Z,100761.41
2023-05-09T23:12:33.372Z,100830.22
2023-05-09T23:15:35.535Z,100733.03
2023-05-09T23:18:37.220Z,100817.38
2023-05-09T23:21:39.030Z,100801.78
2023-05-09T23:24:41.304Z,100812.25
2023-05-09T23:27:44.657Z,100808.91
2023-05-09T23:30:46.302Z,100824.59
2023-05-09T23:33:48.005Z,100795.94
2023-05-09T23:36:49.747Z,100804.75
2023-05-09T23:39:51.525Z,100819.59
2023-05-09T23:42:53.345Z,100827.53
2023-05-09T23:45:56.749Z,100813.78
2023-05-09T23:48:58.584Z,100811.19
2023-05-09T23:52:00.365Z,100806.78
2023-05-09T23:55:02.375Z,100801.75
2023-05-09T23:58:04.255Z,100791.31
